Terminal Aerodrome Forecast
Issued by NWS Tulsa, OK

Home | Current Version | Previous Version | Text Only | Print | Product List | Glossary On
Versions: 1 2 3 4 5 6 7 8 9 10 11 12 13 14 15 16 17
000
FTUS44 KTSA 022300
TAFFSM
TAF
KFSM 022321Z 0300/0324 09006KT P6SM OVC021
     FM030400 08008KT 5SM BR OVC007
     FM030800 08007KT 3SM BR OVC007
     FM031400 10006KT 2SM BR VCSH OVC004
     FM031800 24008KT 4SM BR OVC015
      TEMPO 0320/0324 2SM -RA BR OVC007=

USA.gov is the U.S. government's official web portal to all federal, state and local government web resources and services.